Time;durP1;ratioP1;P1;durP2;ratioP2;P2;SDS_P1;SDS_P2;PMS_P1;PMS_P2;Temp;Humidity;BMP_temperature;BMP_pressure;BME280_temperature;BME280_humidity;BME280_pressure;Samples;Min_cycle;Max_cycle;Signal;HPM_P1;HPM_P2
2022/06/09 00:01:49;;;;;;;12.30;7.88;;;;;;;19.27;77.08;99868.75;4955816;28;20027;-90
2022/06/09 00:04:26;;;;;;;9.73;6.03;;;;;;;19.37;78.47;99963.19;4933993;28;20054;-89
2022/06/09 00:07:16;;;;;;;12.93;6.47;;;;;;;18.85;78.32;99872.38;4958388;28;20521;-89
2022/06/09 00:09:47;;;;;;;13.93;8.35;;;;;;;18.95;77.96;99873.69;4960287;28;20098;-90
2022/06/09 00:12:13;;;;;;;11.38;6.43;;;;;;;18.91;78.24;99864.97;4951407;28;20031;-89
2022/06/09 00:14:39;;;;;;;10.65;6.85;;;;;;;19.50;77.19;99943.13;4941527;28;20038;-89
2022/06/09 00:17:05;;;;;;;13.02;7.38;;;;;;;19.30;77.60;99932.47;4938970;29;20738;-89
2022/06/09 00:19:32;;;;;;;12.85;7.80;;;;;;;19.01;77.48;99897.38;4951772;28;20486;-89
2022/06/09 00:21:58;;;;;;;10.43;5.57;;;;;;;19.08;77.39;99924.53;4949693;28;20396;-88
2022/06/09 00:24:24;;;;;;;8.68;5.80;;;;;;;19.08;77.43;99935.19;4942501;28;20582;-89
2022/06/09 00:26:55;;;;;;;10.88;6.03;;;;;;;18.88;77.26;99891.69;4944015;29;20556;-89
2022/06/09 00:29:21;;;;;;;13.02;6.82;;;;;;;19.32;75.62;99922.63;4931673;29;20036;-90
2022/06/09 00:31:47;;;;;;;9.50;5.78;;;;;;;18.95;74.60;99901.13;4936151;29;20075;-89
2022/06/09 00:34:12;;;;;;;7.30;5.35;;;;;;;18.89;75.69;99905.84;4925998;29;20048;-88
2022/06/09 00:36:38;;;;;;;11.38;5.43;;;;;;;18.79;75.33;99889.44;4945491;28;20030;-88
2022/06/09 00:39:04;;;;;;;11.25;6.10;;;;;;;18.66;76.16;99881.09;4940678;28;20816;-89
2022/06/09 00:41:37;;;;;;;7.18;5.25;;;;;;;19.13;75.22;99907.47;4903539;28;20062;-87
2022/06/09 00:44:16;;;;;;;9.57;4.03;;;;;;;18.80;75.83;99872.56;4937326;28;20035;-91
2022/06/09 00:46:42;;;;;;;12.23;5.10;;;;;;;18.86;75.26;99856.34;4939722;29;20102;-89
2022/06/09 00:49:21;;;;;;;15.20;6.10;;;;;;;18.91;74.86;99859.66;4952434;28;20829;-88
2022/06/09 00:51:52;;;;;;;15.60;5.30;;;;;;;19.14;75.77;99909.19;4949632;29;20035;-88
2022/06/09 00:54:43;;;;;;;7.55;5.60;;;;;;;18.68;77.15;99863.28;4933267;29;20036;-88
2022/06/09 00:57:14;;;;;;;8.68;5.30;;;;;;;18.95;76.66;99893.16;4932403;29;20134;-88
2022/06/09 00:59:44;;;;;;;12.00;6.00;;;;;;;18.56;77.42;99855.81;4940918;28;20039;-88
2022/06/09 01:02:15;;;;;;;10.52;5.88;;;;;;;18.51;78.39;99863.97;4933996;29;20499;-86
2022/06/09 01:04:41;;;;;;;17.85;5.25;;;;;;;18.82;78.23;99910.56;4934615;29;20070;-87
2022/06/09 01:07:13;;;;;;;12.80;5.93;;;;;;;18.76;78.39;99900.16;4937204;29;20032;-88
2022/06/09 01:09:46;;;;;;;8.55;5.63;;;;;;;18.80;79.12;99930.16;4941731;28;20515;-89
2022/06/09 01:12:43;;;;;;;7.88;4.88;;;;;;;18.69;78.15;99922.63;4932069;29;20048;-87
2022/06/09 01:15:14;;;;;;;6.63;4.88;;;;;;;18.59;78.84;99900.00;4940356;28;20462;-86
2022/06/09 01:17:56;;;;;;;8.10;5.20;;;;;;;18.28;79.36;99864.91;4935515;28;20035;-89
2022/06/09 01:20:46;;;;;;;8.00;4.93;;;;;;;18.44;79.43;99891.72;4943572;28;20042;-88
2022/06/09 01:23:34;;;;;;;10.50;5.95;;;;;;;18.34;79.24;99870.00;4939534;28;20502;-89
2022/06/09 01:26:21;;;;;;;8.57;5.95;;;;;;;18.65;78.08;99921.00;4944005;28;20050;-88
2022/06/09 01:28:52;;;;;;;7.93;4.82;;;;;;;18.38;79.45;99902.63;4939657;29;20023;-89
2022/06/09 01:31:24;;;;;;;11.95;5.90;;;;;;;18.78;78.94;99924.94;4940351;29;20078;-90
2022/06/09 01:34:10;;;;;;;10.07;6.25;;;;;;;18.93;78.23;99928.72;4940833;29;20040;-89
2022/06/09 01:36:42;;;;;;;10.75;5.53;;;;;;;18.83;78.62;99930.91;4934844;29;20079;-88
2022/06/09 01:39:08;;;;;;;7.50;5.28;;;;;;;18.74;79.23;99932.13;4940586;28;20032;-90
2022/06/09 01:41:35;;;;;;;12.40;6.57;;;;;;;18.56;79.01;99908.97;4945898;28;20170;-88
2022/06/09 01:44:02;;;;;;;11.60;6.53;;;;;;;18.63;79.10;99939.66;4944757;28;20545;-88
2022/06/09 01:46:36;;;;;;;8.75;6.00;;;;;;;18.62;78.95;99932.63;4943612;28;20027;-86
2022/06/09 01:49:08;;;;;;;11.18;5.13;;;;;;;18.70;78.88;99909.25;4944563;28;20042;-88
2022/06/09 01:51:38;;;;;;;16.15;7.43;;;;;;;18.40;79.28;99890.13;4948237;29;20426;-88
2022/06/09 01:54:13;;;;;;;10.48;6.22;;;;;;;18.68;79.05;99937.72;4953070;29;20048;-88
2022/06/09 01:57:00;;;;;;;12.73;7.78;;;;;;;18.69;79.48;99933.25;4957093;29;20506;-89
2022/06/09 01:59:34;;;;;;;14.35;7.20;;;;;;;18.41;79.41;99880.38;4969150;28;20071;-87
2022/06/09 02:02:03;;;;;;;16.30;7.18;;;;;;;18.61;79.37;99906.97;4938834;29;20402;-88
2022/06/09 02:04:37;;;;;;;12.27;7.25;;;;;;;18.53;78.33;99866.56;4955699;28;20058;-88
2022/06/09 02:07:08;;;;;;;9.70;7.15;;;;;;;18.52;79.38;99902.91;4941350;28;20035;-87
2022/06/09 02:09:37;;;;;;;10.68;7.03;;;;;;;18.17;79.38;99837.97;4959504;28;20051;-88
2022/06/09 02:12:10;;;;;;;13.52;6.78;;;;;;;18.22;79.63;99874.94;4965089;28;20116;-86
2022/06/09 02:14:36;;;;;;;;;;;;;;;18.59;79.35;99900.88;4943269;28;20034;-88
2022/06/09 02:17:05;;;;;;;11.75;6.50;;;;;;;18.66;79.18;99923.63;4956957;28;19918;-90
2022/06/09 02:19:31;;;;;;;10.70;7.30;;;;;;;18.49;79.46;99921.63;4960370;28;20035;-90
2022/06/09 02:21:57;;;;;;;10.00;7.03;;;;;;;18.05;78.49;99834.00;4972454;28;20030;-88
2022/06/09 02:24:24;;;;;;;8.68;5.72;;;;;;;18.14;78.22;99859.28;4972931;28;20031;-87
2022/06/09 02:26:50;;;;;;;9.95;6.28;;;;;;;18.59;78.78;99919.47;4949492;28;20037;-88
2022/06/09 02:29:15;;;;;;;12.80;5.97;;;;;;;18.75;77.52;99917.91;4948965;28;20406;-88
2022/06/09 02:31:42;;;;;;;9.07;5.43;;;;;;;18.22;78.42;99874.94;4940347;28;20098;-88
2022/06/09 02:34:09;;;;;;;8.75;5.03;;;;;;;17.92;79.21;99848.69;4961555;28;20027;-88
2022/06/09 02:36:35;;;;;;;9.27;5.97;;;;;;;18.40;78.82;99908.72;4941151;28;20495;-89
2022/06/09 02:39:01;;;;;;;14.73;6.05;;;;;;;18.03;79.08;99850.94;4963620;28;20113;-89
2022/06/09 02:41:26;;;;;;;9.65;4.80;;;;;;;18.59;78.56;99913.28;4972150;28;20097;-89
2022/06/09 02:43:53;;;;;;;9.20;6.15;;;;;;;18.40;79.14;99895.44;4964093;28;20399;-87
2022/06/09 02:46:20;;;;;;;9.27;5.28;;;;;;;18.38;79.12;99909.69;4939465;28;20062;-88
2022/06/09 02:48:46;;;;;;;7.35;5.13;;;;;;;17.98;79.11;99843.13;4957095;28;20031;-87
2022/06/09 02:51:23;;;;;;;9.35;5.47;;;;;;;18.58;78.85;99903.59;4943516;28;20122;-87
2022/06/09 02:53:49;;;;;;;9.20;5.60;;;;;;;18.62;78.50;99897.22;4960652;28;20085;-87
2022/06/09 02:56:16;;;;;;;10.55;5.78;;;;;;;18.10;81.30;99911.69;4970125;28;20859;-88
2022/06/09 02:58:42;;;;;;;6.72;4.80;;;;;;;17.72;81.50;99846.75;4961669;28;20125;-87
2022/06/09 03:01:07;;;;;;;6.55;4.55;;;;;;;17.89;80.55;99839.06;4959819;28;20129;-88
2022/06/09 03:03:34;;;;;;;7.15;4.50;;;;;;;18.18;81.69;99902.53;4938821;28;20046;-86
2022/06/09 03:05:59;;;;;;;13.73;5.72;;;;;;;18.20;81.50;99906.88;4951466;28;20134;-86
2022/06/09 03:08:26;;;;;;;8.40;4.88;;;;;;;18.05;81.65;99887.09;4933503;28;20043;-88
2022/06/09 03:10:52;;;;;;;8.88;4.80;;;;;;;18.07;81.08;99856.00;4938611;29;20055;-87
2022/06/09 03:13:18;;;;;;;7.93;5.25;;;;;;;18.37;80.86;99905.31;4946604;28;20042;-88
2022/06/09 03:15:47;;;;;;;9.57;5.70;;;;;;;18.06;81.39;99858.75;4935503;29;20063;-87
2022/06/09 03:18:13;;;;;;;9.82;5.68;;;;;;;17.93;81.81;99838.00;4945297;28;20042;-88
2022/06/09 03:20:39;;;;;;;18.35;6.88;;;;;;;18.22;82.09;99889.09;4936016;29;20038;-87
2022/06/09 03:23:05;;;;;;;13.55;6.85;;;;;;;17.70;83.51;99860.09;4935812;29;20488;-86
2022/06/09 03:25:30;;;;;;;9.43;5.78;;;;;;;18.18;82.56;99891.91;4937452;29;20523;-86
2022/06/09 03:27:56;;;;;;;7.20;5.72;;;;;;;17.93;82.69;99840.66;4945482;28;20035;-88
2022/06/09 03:30:22;;;;;;;9.35;6.70;;;;;;;18.18;82.63;99892.78;4949900;28;20042;-87
2022/06/09 03:32:48;;;;;;;11.55;6.93;;;;;;;18.25;82.82;99893.41;4946542;28;20035;-88
2022/06/09 03:35:14;;;;;;;9.52;7.15;;;;;;;18.29;82.80;99901.19;4930851;29;20502;-89
2022/06/09 03:37:39;;;;;;;20.60;7.07;;;;;;;18.18;82.91;99890.13;4928967;29;20043;-87
2022/06/09 03:40:07;;;;;;;13.43;6.47;;;;;;;18.44;82.38;99894.38;4932390;28;20035;-89
2022/06/09 03:42:32;;;;;;;15.13;8.45;;;;;;;18.17;82.84;99885.75;4932093;29;20043;-89
2022/06/09 03:44:58;;;;;;;12.73;5.55;;;;;;;18.07;83.54;99889.69;4947820;28;20813;-89
2022/06/09 03:47:24;;;;;;;17.33;6.70;;;;;;;18.06;83.86;99891.47;4937024;29;20411;-86
2022/06/09 03:49:50;;;;;;;8.38;5.78;;;;;;;18.24;83.30;99911.13;4932356;29;20043;-89
2022/06/09 03:52:16;;;;;;;12.52;6.90;;;;;;;18.26;83.06;99892.47;4931728;28;20027;-89
2022/06/09 03:54:41;;;;;;;9.80;6.43;;;;;;;18.33;83.24;99908.13;4929167;29;20680;-89
2022/06/09 03:57:07;;;;;;;11.55;6.75;;;;;;;18.42;82.63;99913.97;4931181;29;20175;-89
2022/06/09 03:59:32;;;;;;;8.07;5.82;;;;;;;18.28;82.26;99896.78;4938308;29;20035;-88
2022/06/09 04:01:58;;;;;;;8.95;6.60;;;;;;;18.47;81.73;99909.31;4938040;28;20086;-90
2022/06/09 04:04:23;;;;;;;14.65;6.75;;;;;;;18.46;81.40;99897.00;4949661;28;20042;-87
2022/06/09 04:06:55;;;;;;;9.93;6.22;;;;;;;18.69;81.03;99885.41;4950345;28;20054;-87
2022/06/09 04:09:21;;;;;;;8.95;5.55;;;;;;;18.77;80.50;99892.16;4945470;28;20090;-87
2022/06/09 04:11:46;;;;;;;12.05;6.60;;;;;;;18.74;80.69;99897.56;4962575;28;20039;-87
2022/06/09 04:14:12;;;;;;;9.40;6.55;;;;;;;18.54;81.34;99887.78;4952942;28;20070;-87
2022/06/09 04:16:46;;;;;;;13.45;5.88;;;;;;;18.73;81.01;99890.53;4961528;28;20770;-90
2022/06/09 04:19:16;;;;;;;8.98;6.85;;;;;;;18.74;80.48;99880.75;4950883;28;20034;-89
2022/06/09 04:21:43;;;;;;;8.90;5.47;;;;;;;18.63;81.33;99875.88;4933044;28;20463;-88
2022/06/09 04:24:09;;;;;;;8.15;5.20;;;;;;;18.72;80.90;99878.16;4948481;28;20043;-88
2022/06/09 04:26:37;;;;;;;6.70;4.95;;;;;;;18.68;81.09;99897.84;4944733;28;20596;-90
2022/06/09 04:29:05;;;;;;;10.77;5.03;;;;;;;18.65;81.48;99895.28;4955931;28;20066;-90
2022/06/09 04:31:33;;;;;;;9.30;4.35;;;;;;;18.64;80.99;99888.25;4949840;28;20126;-89
2022/06/09 04:33:58;;;;;;;8.30;4.97;;;;;;;18.71;81.38;99894.19;4931693;28;20561;-90
2022/06/09 04:36:24;;;;;;;7.32;5.15;;;;;;;18.94;79.93;99885.25;4964506;28;20130;-89
2022/06/09 04:38:50;;;;;;;8.23;5.30;;;;;;;18.91;80.18;99888.91;4953824;28;20613;-88
2022/06/09 04:41:16;;;;;;;11.48;4.88;;;;;;;19.08;79.42;99895.28;4950871;28;20595;-88
2022/06/09 04:43:46;;;;;;;9.07;5.68;;;;;;;19.17;79.02;99897.56;4950710;28;20062;-89
2022/06/09 04:46:15;;;;;;;9.10;5.25;;;;;;;18.93;79.16;99876.41;4949790;28;20063;-89
2022/06/09 04:48:41;;;;;;;9.20;4.95;;;;;;;19.14;78.81;99887.06;4950549;28;20063;-89
2022/06/09 04:51:13;;;;;;;7.18;4.80;;;;;;;19.40;78.71;99894.72;4949774;28;20067;-88
2022/06/09 04:53:39;;;;;;;6.68;4.47;;;;;;;19.60;77.92;99901.84;4958974;28;20042;-89
2022/06/09 04:56:06;;;;;;;7.60;5.28;;;;;;;19.63;77.60;99918.59;4945985;28;20491;-88
2022/06/09 04:58:32;;;;;;;8.55;5.25;;;;;;;20.06;76.73;99912.16;4947964;28;20511;-89
2022/06/09 05:00:58;;;;;;;9.10;5.18;;;;;;;19.89;76.82;99912.09;4951242;28;20027;-89
2022/06/09 05:03:24;;;;;;;10.82;5.15;;;;;;;19.76;77.48;99915.34;4953557;28;20845;-88
2022/06/09 05:05:50;;;;;;;11.23;5.22;;;;;;;19.84;77.18;99912.31;4950101;28;20038;-88
2022/06/09 05:08:17;;;;;;;6.63;4.70;;;;;;;19.93;76.47;99917.22;4949092;28;20072;-89
2022/06/09 05:10:49;;;;;;;5.20;4.20;;;;;;;19.78;76.90;99928.56;4958605;28;20439;-91
2022/06/09 05:13:16;;;;;;;10.18;4.25;;;;;;;19.86;76.28;99910.44;4940857;28;20047;-89
2022/06/09 05:15:52;;;;;;;9.60;4.85;;;;;;;19.64;77.49;99926.50;4957819;28;20038;-90
2022/06/09 05:18:24;;;;;;;6.32;4.10;;;;;;;19.64;77.67;99929.16;4944385;28;20105;-89
2022/06/09 05:20:51;;;;;;;9.65;5.13;;;;;;;19.81;77.40;99933.78;4972221;28;20597;-89
2022/06/09 05:23:20;;;;;;;11.95;6.13;;;;;;;19.73;77.01;99939.41;4963329;28;20043;-87
2022/06/09 05:25:51;;;;;;;13.15;4.97;;;;;;;19.92;77.49;99938.59;4961706;28;20039;-88
2022/06/09 05:28:18;;;;;;;26.17;7.30;;;;;;;20.13;76.03;99940.25;4949000;28;20027;-91
2022/06/09 05:30:44;;;;;;;10.07;6.78;;;;;;;20.49;74.35;99941.25;4950076;28;20030;-88
2022/06/09 05:33:09;;;;;;;8.57;5.13;;;;;;;20.81;72.96;99943.22;4948185;28;20038;-89
2022/06/09 05:35:36;;;;;;;10.48;6.32;;;;;;;21.11;72.21;99944.41;4959787;28;20123;-89
2022/06/09 05:46:16;;;;;;;15.20;7.13;;;;;;;20.55;73.81;99938.25;4954749;28;20050;-88
2022/06/09 05:48:42;;;;;;;10.88;6.88;;;;;;;20.81;72.91;99953.00;4957777;28;20034;-89
2022/06/09 05:51:09;;;;;;;17.50;6.05;;;;;;;20.92;72.43;99933.81;4971988;28;20035;-88
2022/06/09 05:53:37;;;;;;;7.93;5.38;;;;;;;21.56;71.11;99929.63;4963224;28;20509;-89
2022/06/09 05:56:04;;;;;;;8.77;5.28;;;;;;;21.97;68.38;99929.22;4952383;28;20037;-88
2022/06/09 05:58:30;;;;;;;16.23;6.20;;;;;;;22.40;68.16;99945.53;4972083;28;20475;-89
2022/06/09 06:00:59;;;;;;;10.32;5.35;;;;;;;22.09;68.34;99932.06;4949640;28;20038;-89
2022/06/09 06:03:25;;;;;;;11.52;5.45;;;;;;;22.03;67.58;99945.78;4972423;28;20070;-90
2022/06/09 06:08:35;;;;;;;8.85;4.18;;;;;;;22.35;64.48;99935.13;4960124;28;20419;-88
2022/06/09 06:11:00;;;;;;;4.82;2.83;;;;;;;22.46;63.79;99935.38;4960450;28;20063;-88
2022/06/09 06:13:26;;;;;;;10.20;3.38;;;;;;;22.60;63.39;99939.94;4952442;28;20051;-88
2022/06/09 06:15:51;;;;;;;17.90;4.00;;;;;;;22.79;62.73;99945.06;4934562;28;20035;-89
2022/06/09 06:18:17;;;;;;;6.22;3.85;;;;;;;22.81;61.64;99948.53;4953270;28;20070;-89
2022/06/09 06:20:42;;;;;;;5.68;3.30;;;;;;;23.09;60.78;99936.25;4951544;28;20082;-87
2022/06/09 06:23:08;;;;;;;6.55;4.10;;;;;;;23.32;62.13;99932.16;4962740;28;20034;-88
2022/06/09 06:25:33;;;;;;;7.68;3.30;;;;;;;23.63;60.51;99941.88;4970057;28;20030;-89
2022/06/09 06:28:02;;;;;;;6.05;3.22;;;;;;;23.11;58.11;99948.56;4964894;28;20035;-89
2022/06/09 06:30:28;;;;;;;4.78;2.38;;;;;;;23.33;57.73;99939.25;4944216;28;20031;-88
2022/06/09 06:32:55;;;;;;;6.38;3.28;;;;;;;23.37;58.71;99924.72;4961889;28;20113;-89
2022/06/09 06:35:20;;;;;;;6.88;3.22;;;;;;;23.71;59.28;99944.06;4941530;28;20171;-89
2022/06/09 06:37:46;;;;;;;4.78;2.60;;;;;;;23.66;57.89;99927.41;4956426;28;20092;-88
2022/06/09 06:40:14;;;;;;;8.98;2.78;;;;;;;23.58;57.15;99933.25;4970429;28;20137;-88
2022/06/09 06:42:39;;;;;;;10.02;3.00;;;;;;;23.28;56.83;99949.38;4963970;28;20059;-88
2022/06/09 06:45:06;;;;;;;6.40;2.50;;;;;;;23.70;57.54;99940.53;4962766;28;20057;-89
2022/06/09 06:47:32;;;;;;;4.78;2.53;;;;;;;23.96;57.38;99943.44;4964097;28;20034;-91
2022/06/09 06:49:57;;;;;;;4.38;2.75;;;;;;;24.09;57.17;99941.69;4976533;28;20050;-89
2022/06/09 06:52:23;;;;;;;4.32;2.58;;;;;;;24.18;59.20;99940.22;4969266;28;20024;-89
2022/06/09 06:54:50;;;;;;;8.93;2.85;;;;;;;24.05;54.62;99928.59;4963168;28;20035;-88
2022/06/09 06:57:17;;;;;;;6.70;2.85;;;;;;;24.16;55.55;99942.16;4952839;28;20122;-91
2022/06/09 06:59:42;;;;;;;9.30;2.80;;;;;;;24.36;56.33;99936.38;4969349;28;20031;-89
2022/06/09 07:02:11;;;;;;;4.75;2.88;;;;;;;24.09;56.14;99925.63;4972934;28;20050;-88
2022/06/09 07:04:39;;;;;;;10.75;5.63;;;;;;;24.33;53.91;99930.34;4964652;28;20134;-90
2022/06/09 07:07:05;;;;;;;11.65;3.40;;;;;;;24.47;53.62;99932.13;4934175;28;20094;-89
2022/06/09 07:09:30;;;;;;;7.07;2.17;;;;;;;24.33;53.21;99927.66;4949719;28;20063;-87
2022/06/09 07:11:56;;;;;;;4.45;1.90;;;;;;;24.01;53.71;99934.13;4951487;28;20162;-89
2022/06/09 07:14:22;;;;;;;5.85;2.22;;;;;;;24.54;54.00;99930.81;4953141;28;20363;-89
2022/06/09 07:16:47;;;;;;;11.55;3.70;;;;;;;24.52;52.23;99916.63;4959230;28;20070;-90
2022/06/09 07:19:15;;;;;;;6.85;2.63;;;;;;;24.49;55.72;99925.75;4961940;28;20109;-89
2022/06/09 07:21:40;;;;;;;5.25;2.42;;;;;;;23.61;55.61;99925.03;4969934;28;20030;-89
2022/06/09 07:24:06;;;;;;;7.15;2.08;;;;;;;23.33;55.56;99933.88;4964794;28;20537;-90
2022/06/09 07:26:32;;;;;;;10.82;2.90;;;;;;;23.56;55.19;99935.16;4952756;28;20815;-89
2022/06/09 07:28:57;;;;;;;7.70;2.88;;;;;;;23.55;54.62;99938.78;4968700;28;20133;-89
2022/06/09 07:31:24;;;;;;;3.42;2.03;;;;;;;23.77;55.67;99939.22;4936283;28;20075;-89
2022/06/09 07:33:50;;;;;;;9.40;2.78;;;;;;;23.67;56.14;99931.81;4950487;28;20050;-89
2022/06/09 07:36:19;;;;;;;9.30;2.40;;;;;;;23.79;56.00;99940.00;4950099;28;20028;-89
2022/06/09 07:38:45;;;;;;;5.90;2.40;;;;;;;23.76;55.61;99929.47;4951473;28;20031;-89
2022/06/09 07:41:12;;;;;;;6.05;2.28;;;;;;;23.26;56.50;99927.19;4952993;28;20043;-89
2022/06/09 07:43:38;;;;;;;6.43;2.72;;;;;;;23.08;57.87;99924.66;4968851;28;20177;-88
2022/06/09 07:46:04;;;;;;;13.77;2.72;;;;;;;22.97;58.15;99914.56;4970086;28;20039;-89
2022/06/09 07:48:30;;;;;;;13.27;3.63;;;;;;;23.48;56.19;99927.59;4958915;28;20502;-89
2022/06/09 07:50:55;;;;;;;10.65;3.88;;;;;;;23.67;57.40;99927.34;4961533;28;20039;-88
2022/06/09 07:53:22;;;;;;;8.32;5.60;;;;;;;23.56;56.24;99916.41;4952950;28;20135;-87
2022/06/09 07:55:48;;;;;;;5.85;3.38;;;;;;;23.27;58.30;99920.88;4959307;28;20035;-90
2022/06/09 07:58:14;;;;;;;13.98;6.30;;;;;;;23.42;57.55;99929.81;4933884;28;20035;-89
2022/06/09 08:00:40;;;;;;;6.28;3.35;;;;;;;23.76;57.26;99920.56;4951451;28;20046;-89
2022/06/09 08:03:07;;;;;;;6.57;2.85;;;;;;;23.96;58.23;99927.34;4933631;28;20039;-90
2022/06/09 08:05:33;;;;;;;5.30;3.05;;;;;;;23.51;58.64;99922.06;4950544;28;20047;-90
2022/06/09 08:07:59;;;;;;;14.65;3.45;;;;;;;23.20;60.19;99917.69;4952334;28;20035;-89
2022/06/09 08:10:27;;;;;;;8.07;3.53;;;;;;;22.77;60.40;99925.56;4950783;28;20775;-90
2022/06/09 08:12:56;;;;;;;9.20;3.53;;;;;;;22.92;59.65;99934.50;4915334;28;20031;-88
2022/06/09 08:15:24;;;;;;;12.18;2.63;;;;;;;22.84;58.76;99932.28;4952169;28;20027;-89
2022/06/09 08:17:51;;;;;;;8.70;2.45;;;;;;;22.74;59.61;99939.13;4968154;28;20128;-90
2022/06/09 08:20:17;;;;;;;6.50;2.28;;;;;;;22.29;59.85;99940.81;4953957;28;20031;-89
2022/06/09 08:22:43;;;;;;;9.68;3.40;;;;;;;22.41;60.32;99941.94;4933786;28;20207;-89
2022/06/09 08:25:13;;;;;;;6.32;2.78;;;;;;;22.61;59.95;99948.81;4969191;28;20034;-90
2022/06/09 08:27:40;;;;;;;7.68;3.55;;;;;;;22.34;60.80;99939.59;4950763;28;20114;-88
2022/06/09 08:30:08;;;;;;;5.38;3.00;;;;;;;22.64;58.85;99935.25;4950628;28;20031;-90
2022/06/09 08:32:34;;;;;;;6.93;2.60;;;;;;;22.74;57.69;99945.34;4951487;28;20039;-91
2022/06/09 08:35:00;;;;;;;7.47;2.22;;;;;;;23.00;58.08;99940.31;4948843;28;20046;-90
2022/06/09 08:37:25;;;;;;;9.68;2.45;;;;;;;22.66;56.90;99928.00;4947078;28;20039;-89
2022/06/09 08:39:52;;;;;;;8.18;2.42;;;;;;;22.48;57.77;99938.81;4952127;28;20050;-87
2022/06/09 08:42:33;;;;;;;5.53;2.05;;;;;;;22.26;56.33;99944.50;4933037;28;20031;-89
2022/06/09 08:45:02;;;;;;;7.00;2.50;;;;;;;22.44;57.10;99949.78;4963343;28;20035;-88
2022/06/09 08:47:38;;;;;;;6.25;2.60;;;;;;;22.91;56.77;99959.56;4965210;28;20042;-87
2022/06/09 08:50:28;;;;;;;3.92;2.70;;;;;;;22.79;58.46;99946.91;4951731;28;20050;-88
2022/06/09 08:53:24;;;;;;;7.53;2.60;;;;;;;22.84;58.91;99945.66;4955569;28;20028;-88
2022/06/09 08:56:08;;;;;;;8.80;3.05;;;;;;;22.82;58.25;99941.34;4919570;28;20067;-89
2022/06/09 08:58:40;;;;;;;4.85;2.10;;;;;;;22.19;57.53;99945.75;4932296;28;20046;-89
2022/06/09 09:01:11;;;;;;;10.10;2.70;;;;;;;22.21;58.47;99957.25;4950607;28;20035;-89
2022/06/09 09:03:48;;;;;;;4.90;2.20;;;;;;;22.59;59.90;99946.22;4949944;28;20043;-89
2022/06/09 09:06:26;;;;;;;26.13;5.80;;;;;;;22.73;58.03;99945.41;4945927;28;20121;-90
2022/06/09 09:08:56;;;;;;;6.20;2.40;;;;;;;22.35;58.80;99951.16;4941719;28;20066;-88
2022/06/09 09:12:06;;;;;;;3.95;2.20;;;;;;;21.63;61.59;99950.59;4957862;28;20526;-89
2022/06/09 09:15:04;;;;;;;7.95;2.42;;;;;;;21.77;61.90;99948.97;4942072;28;20039;-89
2022/06/09 09:17:44;;;;;;;8.70;3.20;;;;;;;21.52;62.32;99954.75;4954616;28;20043;-90
2022/06/09 09:20:21;;;;;;;10.27;3.53;;;;;;;21.35;63.43;99947.59;4956764;28;20027;-89
2022/06/09 09:23:07;;;;;;;6.30;2.28;;;;;;;21.55;63.10;99933.25;4956202;28;20039;-88
2022/06/09 09:25:39;;;;;;;13.43;2.65;;;;;;;21.59;63.11;99937.50;4956235;28;20050;-90
2022/06/09 09:28:30;;;;;;;7.28;2.38;;;;;;;21.80;63.01;99925.66;4955193;28;20067;-89
2022/06/09 09:31:02;;;;;;;5.75;2.25;;;;;;;21.45;63.04;99940.91;4955453;28;20031;-89
2022/06/09 09:33:29;;;;;;;6.60;2.40;;;;;;;21.56;62.92;99932.28;4955811;28;20058;-88
2022/06/09 09:36:05;;;;;;;4.43;1.77;;;;;;;21.68;63.77;99929.84;4955351;28;20071;-90
2022/06/09 09:38:56;;;;;;;4.07;1.98;;;;;;;21.58;65.76;99930.41;4959825;28;20031;-88
2022/06/09 09:41:31;;;;;;;5.75;2.67;;;;;;;21.45;66.00;99919.53;4960535;28;20043;-88
2022/06/09 09:43:57;;;;;;;3.47;2.25;;;;;;;21.43;69.09;99919.59;4963964;28;20494;-88
2022/06/09 09:46:33;;;;;;;6.47;2.45;;;;;;;21.48;69.00;99916.69;4970035;28;20059;-87
2022/06/09 09:49:15;;;;;;;6.15;3.20;;;;;;;22.29;68.16;99908.75;4973895;28;20034;-88
2022/06/09 09:51:42;;;;;;;15.32;3.65;;;;;;;22.16;69.42;99903.19;4961690;28;20035;-86
2022/06/09 09:54:19;;;;;;;18.73;3.20;;;;;;;21.97;70.45;99913.19;4955554;28;20035;-83
2022/06/09 09:56:46;;;;;;;7.93;3.83;;;;;;;22.03;68.63;99908.38;4954662;28;20038;-85
2022/06/09 09:59:25;;;;;;;6.78;3.15;;;;;;;21.72;70.49;99903.81;4957332;28;20039;-87
2022/06/09 10:10:26;;;;;;;8.98;3.55;;;;;;;22.70;65.64;99908.16;4953928;28;20050;-85
2022/06/09 10:12:55;;;;;;;10.90;3.67;;;;;;;22.77;65.67;99902.34;4958051;28;20042;-85
2022/06/09 10:15:22;;;;;;;8.43;3.63;;;;;;;23.01;64.42;99899.19;4957181;28;20071;-89
2022/06/09 10:18:09;;;;;;;5.75;3.28;;;;;;;22.79;66.36;99896.94;4955106;28;20063;-88
2022/06/09 10:20:53;;;;;;;9.07;4.07;;;;;;;23.26;63.98;99906.63;4958461;28;20059;-86
2022/06/09 10:23:42;;;;;;;9.23;3.60;;;;;;;23.09;64.19;99893.41;4939115;28;20360;-88
2022/06/09 10:26:14;;;;;;;8.98;4.60;;;;;;;23.42;63.30;99889.63;4955941;28;20147;-89
2022/06/09 10:29:02;;;;;;;10.45;4.65;;;;;;;23.45;63.52;99892.09;4957783;28;20062;-87
2022/06/09 10:31:58;;;;;;;8.75;4.03;;;;;;;23.34;64.56;99884.72;4955972;28;20031;-89
2022/06/09 10:34:54;;;;;;;10.63;4.07;;;;;;;23.74;59.16;99888.53;4957304;28;20097;-88
2022/06/09 10:37:25;;;;;;;15.98;4.32;;;;;;;24.29;59.33;99881.41;4951006;28;20039;-86
2022/06/09 10:40:16;;;;;;;11.27;5.10;;;;;;;24.29;58.86;99868.00;4952822;28;20042;-87
2022/06/09 10:43:10;;;;;;;6.30;3.28;;;;;;;24.30;59.66;99850.94;4958381;28;20038;-85
2022/06/09 10:45:51;;;;;;;10.10;4.45;;;;;;;23.83;55.29;99870.13;4959794;28;20043;-83
2022/06/09 10:57:00;;;;;;;4.88;2.25;;;;;;;24.83;55.22;99859.94;4960330;28;20089;-85
2022/06/09 10:59:38;;;;;;;4.32;2.47;;;;;;;25.01;54.61;99852.44;4961676;28;20057;-87
2022/06/09 11:02:22;;;;;;;4.30;2.50;;;;;;;24.87;54.79;99854.38;4955367;28;20110;-84
2022/06/09 11:04:50;;;;;;;9.30;3.15;;;;;;;25.33;53.88;99841.28;4940917;28;20055;-83
2022/06/09 11:07:15;;;;;;;6.38;3.78;;;;;;;25.71;50.81;99840.41;4950288;28;20391;-81
2022/06/09 11:10:00;;;;;;;12.73;2.97;;;;;;;24.92;50.85;99836.97;4963806;28;20038;-79
2022/06/09 11:12:42;;;;;;;5.25;2.42;;;;;;;25.20;52.30;99838.63;4950395;28;20558;-80
2022/06/09 11:15:37;;;;;;;5.40;1.92;;;;;;;25.25;50.47;99832.94;4951677;28;20058;-80
2022/06/09 11:18:20;;;;;;;5.60;2.63;;;;;;;25.31;53.45;99832.53;4950619;28;20043;-79
2022/06/09 11:21:09;;;;;;;3.65;1.98;;;;;;;24.44;52.84;99826.78;4957766;28;20493;-81
2022/06/09 11:24:07;;;;;;;7.93;1.92;;;;;;;24.02;53.17;99834.00;4953593;28;20047;-77
2022/06/09 11:26:40;;;;;;;5.68;2.20;;;;;;;24.85;51.03;99828.47;4947370;28;20050;-81
2022/06/09 11:29:36;;;;;;;7.03;1.73;;;;;;;25.46;48.85;99826.03;4940782;28;20045;-80
2022/06/09 11:32:19;;;;;;;6.40;2.33;;;;;;;25.22;47.45;99819.75;4955973;28;20129;-80
2022/06/09 11:34:51;;;;;;;3.17;1.50;;;;;;;25.12;47.24;99814.09;4949460;28;20054;-80
2022/06/09 11:37:46;;;;;;;4.80;1.67;;;;;;;25.22;47.75;99815.22;4947669;28;20730;-82
2022/06/09 11:40:36;;;;;;;4.65;1.75;;;;;;;26.45;48.28;99798.19;4954014;28;20106;-78
2022/06/09 11:43:16;;;;;;;3.30;2.03;;;;;;;25.60;48.36;99800.88;4951024;28;20039;-78
2022/06/09 11:45:44;;;;;;;4.70;1.83;;;;;;;25.59;47.72;99803.66;4951489;28;20138;-79
2022/06/09 11:48:32;;;;;;;7.35;2.17;;;;;;;25.98;45.17;99791.84;4955578;28;20111;-86
2022/06/09 11:51:00;;;;;;;10.43;2.00;;;;;;;25.49;48.13;99779.28;4950858;28;20045;-84
2022/06/09 11:53:29;;;;;;;3.00;1.88;;;;;;;25.55;48.50;99781.53;4953282;28;20043;-84
2022/06/09 11:56:33;;;;;;;8.32;2.03;;;;;;;25.34;47.31;99788.47;4960148;28;20051;-87
2022/06/09 11:59:20;;;;;;;8.55;2.38;;;;;;;25.93;46.41;99785.97;4968521;28;20035;-83
2022/06/09 12:01:58;;;;;;;5.50;2.03;;;;;;;25.59;45.48;99772.28;4955127;28;20042;-85
2022/06/09 12:04:36;;;;;;;10.00;2.92;;;;;;;25.26;49.22;99783.63;4958556;28;20047;-84
2022/06/09 12:07:46;;;;;;;5.00;2.10;;;;;;;25.05;47.14;99785.97;4963285;28;20066;-88
2022/06/09 12:10:31;;;;;;;5.43;1.63;;;;;;;25.13;45.90;99777.38;4908039;28;20134;-85
2022/06/09 12:13:14;;;;;;;8.23;2.22;;;;;;;24.91;49.48;99769.97;4968293;28;20098;-84
2022/06/09 12:15:46;;;;;;;;;;;;;;;25.19;49.93;99766.22;4957668;28;20037;-85
2022/06/09 12:18:16;;;;;;;3.67;1.95;;;;;;;25.00;50.57;99762.13;4968018;28;19914;-86
2022/06/09 12:20:57;;;;;;;6.15;1.83;;;;;;;25.32;47.66;99755.47;4964357;28;20030;-85